createdAt,value
2019-05-05T00:00:44.656Z,63.83
2019-05-05T00:01:44.914Z,63.35
2019-05-05T00:02:44.736Z,63.45
2019-05-05T00:03:44.527Z,63.45
2019-05-05T00:04:42.827Z,63.26
2019-05-05T00:05:44.421Z,63.64
2019-05-05T00:06:44.555Z,63.26
2019-05-05T00:07:44.752Z,63.45
2019-05-05T00:08:42.965Z,63.35
2019-05-05T00:09:44.925Z,63.35
2019-05-05T00:10:45.159Z,63.83
2019-05-05T00:11:44.442Z,63.92
2019-05-05T00:12:44.746Z,63.92
2019-05-05T00:13:44.683Z,63.64
2019-05-05T00:14:44.244Z,63.92
2019-05-05T00:15:44.900Z,63.73
2019-05-05T00:16:44.498Z,63.64
2019-05-05T00:17:44.867Z,64.02
2019-05-05T00:18:44.783Z,64.49
2019-05-05T00:19:42.915Z,64.21
2019-05-05T00:20:44.657Z,64.21
2019-05-05T00:21:44.602Z,64.40
2019-05-05T00:22:42.906Z,64.40
2019-05-05T00:23:44.984Z,64.40
2019-05-05T00:24:44.402Z,64.49
2019-05-05T00:25:44.750Z,64.49
2019-05-05T00:26:42.895Z,64.46
2019-05-05T00:27:45.136Z,64.49
2019-05-05T00:28:44.764Z,64.78
2019-05-05T00:29:45.143Z,64.56
2019-05-05T00:30:44.855Z,64.65
2019-05-05T00:31:45.261Z,64.94
2019-05-05T00:32:44.281Z,64.69
2019-05-05T00:33:44.826Z,64.94
2019-05-05T00:34:44.444Z,65.22
2019-05-05T00:35:45.001Z,65.12
2019-05-05T00:36:44.570Z,65.41
2019-05-05T00:37:44.943Z,65.22
2019-05-05T00:38:44.517Z,65.79
2019-05-05T00:39:45.007Z,65.79
2019-05-05T00:40:44.304Z,65.60
2019-05-05T00:41:44.918Z,66.08
2019-05-05T00:42:42.977Z,66.08
2019-05-05T00:43:44.965Z,66.08
2019-05-05T00:44:44.661Z,65.98
2019-05-05T00:45:45.008Z,65.88
2019-05-05T00:46:44.704Z,65.69
2019-05-05T00:47:44.942Z,65.79
2019-05-05T00:48:44.431Z,65.98
2019-05-05T00:49:46.351Z,65.98
2019-05-05T00:50:44.934Z,65.69
2019-05-05T00:51:44.360Z,66.17
2019-05-05T00:52:44.546Z,65.60
2019-05-05T00:53:44.921Z,66.08
2019-05-05T00:54:44.971Z,65.60
2019-05-05T00:55:44.285Z,65.79
2019-05-05T00:56:45.000Z,66.27
2019-05-05T00:57:45.153Z,65.98
2019-05-05T00:58:44.603Z,66.55
2019-05-05T00:59:45.078Z,65.98
2019-05-05T01:00:44.366Z,66.36
2019-05-05T01:01:44.818Z,66.08
2019-05-05T01:02:44.796Z,66.08
2019-05-05T01:03:44.200Z,66.27
2019-05-05T01:04:44.521Z,66.17
2019-05-05T01:05:44.826Z,66.27
2019-05-05T01:06:44.980Z,66.08
2019-05-05T01:07:44.424Z,66.55
2019-05-05T01:08:44.559Z,66.27
2019-05-05T01:09:44.986Z,66.55
2019-05-05T01:10:44.325Z,66.83
2019-05-05T01:11:44.609Z,66.64
2019-05-05T01:12:44.923Z,66.36
2019-05-05T01:13:45.345Z,66.08
2019-05-05T01:14:44.787Z,65.69
2019-05-05T01:15:44.865Z,65.98
2019-05-05T01:16:43.126Z,66.55
2019-05-05T01:17:45.028Z,66.36
2019-05-05T01:18:44.968Z,66.55
2019-05-05T01:19:45.395Z,66.27
2019-05-05T01:20:44.865Z,66.74
2019-05-05T01:21:45.274Z,66.46
2019-05-05T01:22:44.811Z,66.93
2019-05-05T01:23:45.349Z,66.74
2019-05-05T01:24:43.210Z,67.12
2019-05-05T01:25:45.194Z,66.36
2019-05-05T01:26:44.626Z,66.64
2019-05-05T01:27:45.150Z,66.93
2019-05-05T01:28:44.700Z,67.12
2019-05-05T01:29:45.067Z,67.12
2019-05-05T01:30:44.513Z,67.02
2019-05-05T01:31:45.054Z,67.12
2019-05-05T01:32:44.597Z,67.12
2019-05-05T01:33:44.878Z,67.50
2019-05-05T01:34:44.357Z,67.79
2019-05-05T01:35:44.770Z,67.69
2019-05-05T01:36:44.996Z,67.97
2019-05-05T01:37:44.289Z,67.50
2019-05-05T01:38:44.689Z,67.37
2019-05-05T01:39:45.118Z,67.69
2019-05-05T01:40:44.678Z,67.59
2019-05-05T01:41:45.193Z,67.40
2019-05-05T01:42:44.679Z,67.50
2019-05-05T01:43:45.058Z,66.93
2019-05-05T01:44:44.787Z,66.74
2019-05-05T01:45:45.219Z,66.83
2019-05-05T01:46:44.502Z,67.12
2019-05-05T01:47:45.136Z,67.21
2019-05-05T01:48:44.507Z,67.18
2019-05-05T01:49:45.189Z,67.69
2019-05-05T01:50:45.191Z,67.18
2019-05-05T01:51:44.722Z,67.65
2019-05-05T01:52:45.100Z,67.79
2019-05-05T01:53:44.283Z,67.50
2019-05-05T01:54:44.595Z,67.56
2019-05-05T01:55:45.067Z,67.46
2019-05-05T01:56:44.531Z,67.21
2019-05-05T01:57:45.041Z,67.50
2019-05-05T01:58:44.171Z,67.21
2019-05-05T01:59:44.800Z,67.21
2019-05-05T02:00:45.089Z,67.12
2019-05-05T02:01:44.528Z,67.02
2019-05-05T02:02:44.835Z,67.02
2019-05-05T02:03:44.283Z,66.93
2019-05-05T02:04:44.681Z,67.21
2019-05-05T02:05:45.130Z,67.21
2019-05-05T02:06:44.341Z,67.21
2019-05-05T02:07:44.819Z,67.12
2019-05-05T02:08:45.282Z,66.93
2019-05-05T02:09:44.806Z,67.21
2019-05-05T02:10:45.275Z,67.31
2019-05-05T02:11:45.221Z,67.12
2019-05-05T02:12:44.693Z,67.12
2019-05-05T02:13:45.061Z,67.02
2019-05-05T02:14:44.426Z,67.40
2019-05-05T02:15:44.583Z,67.21
2019-05-05T02:16:45.210Z,67.21
2019-05-05T02:17:44.575Z,66.93
2019-05-05T02:18:45.047Z,67.21
2019-05-05T02:19:44.348Z,67.31
2019-05-05T02:20:45.109Z,67.31
2019-05-05T02:21:45.275Z,67.21
2019-05-05T02:22:44.588Z,67.31
2019-05-05T02:23:45.178Z,67.02
2019-05-05T02:24:44.440Z,67.21
2019-05-05T02:25:44.765Z,67.21
2019-05-05T02:26:45.434Z,67.31
2019-05-05T02:27:44.698Z,67.12
2019-05-05T02:28:45.284Z,66.64
2019-05-05T02:29:44.686Z,67.12
2019-05-05T02:30:46.287Z,66.55
2019-05-05T02:31:45.409Z,67.02
2019-05-05T02:32:45.178Z,67.31
2019-05-05T02:33:46.006Z,67.02
2019-05-05T02:34:45.638Z,66.93
2019-05-05T02:35:45.844Z,66.83
2019-05-05T02:36:45.974Z,66.74
2019-05-05T02:37:45.693Z,67.21
2019-05-05T02:38:46.163Z,66.74
2019-05-05T02:39:50.497Z,66.74
2019-05-05T02:40:45.219Z,67.21
2019-05-05T02:41:45.246Z,67.12
2019-05-05T02:42:45.571Z,67.12
2019-05-05T02:43:44.970Z,67.12
2019-05-05T02:44:45.532Z,67.31
2019-05-05T02:45:44.117Z,67.02
2019-05-05T02:46:44.650Z,67.31
2019-05-05T02:47:45.068Z,67.02
2019-05-05T02:48:44.980Z,67.21
2019-05-05T02:49:45.388Z,67.12
2019-05-05T02:50:54.900Z,67.02
2019-05-05T02:51:44.713Z,67.02
2019-05-05T02:52:44.242Z,67.12
2019-05-05T02:53:44.551Z,67.12
2019-05-05T02:54:44.231Z,67.21
2019-05-05T02:55:44.224Z,67.12
2019-05-05T02:56:43.690Z,67.21
2019-05-05T02:57:43.952Z,67.12
2019-05-05T02:58:44.378Z,66.93
2019-05-05T02:59:43.551Z,67.59
2019-05-05T03:00:43.794Z,66.83
2019-05-05T03:01:44.623Z,67.12
2019-05-05T03:02:43.549Z,66.93
2019-05-05T03:03:43.858Z,67.31
2019-05-05T03:04:44.349Z,67.31
2019-05-05T03:05:43.552Z,66.74
2019-05-05T03:06:43.791Z,67.21
2019-05-05T03:07:43.818Z,67.21
2019-05-05T03:08:44.056Z,67.21
2019-05-05T03:09:44.000Z,67.69
2019-05-05T03:10:44.324Z,67.88
2019-05-05T03:11:43.707Z,67.79
2019-05-05T03:12:43.965Z,67.69
2019-05-05T03:13:44.228Z,67.59
2019-05-05T03:14:44.620Z,67.69
2019-05-05T03:15:44.148Z,67.59
2019-05-05T03:16:43.634Z,67.50
2019-05-05T03:17:44.490Z,67.59
2019-05-05T03:18:43.986Z,67.69
2019-05-05T03:19:44.453Z,67.50
2019-05-05T03:20:43.681Z,67.21
2019-05-05T03:21:44.165Z,67.59
2019-05-05T03:22:43.569Z,67.97
2019-05-05T03:23:44.014Z,67.88
2019-05-05T03:24:44.676Z,67.88
2019-05-05T03:25:44.029Z,67.97
2019-05-05T03:26:44.395Z,68.26
2019-05-05T03:27:44.544Z,68.35
2019-05-05T03:28:43.909Z,68.07
2019-05-05T03:29:44.167Z,68.16
2019-05-05T03:30:45.485Z,68.26
2019-05-05T03:31:45.790Z,67.88
2019-05-05T03:32:45.510Z,68.26
2019-05-05T03:33:45.935Z,68.26
2019-05-05T03:34:44.538Z,68.07
2019-05-05T03:35:43.671Z,68.35
2019-05-05T03:36:44.204Z,68.35
2019-05-05T03:37:44.626Z,68.26
2019-05-05T03:38:44.448Z,68.07
2019-05-05T03:39:44.455Z,68.35
2019-05-05T03:40:43.688Z,68.35
2019-05-05T03:41:43.861Z,68.26
2019-05-05T03:42:44.256Z,68.35
2019-05-05T03:43:43.624Z,68.16
2019-05-05T03:44:44.086Z,68.16
2019-05-05T03:45:44.476Z,68.35
2019-05-05T03:46:43.909Z,68.35
2019-05-05T03:47:44.143Z,68.26
2019-05-05T03:48:43.884Z,67.97
2019-05-05T03:49:44.223Z,68.07
2019-05-05T03:50:44.629Z,68.26
2019-05-05T03:51:43.936Z,68.16
2019-05-05T03:52:43.904Z,68.44
2019-05-05T03:53:44.064Z,68.16
2019-05-05T03:54:43.671Z,68.16
2019-05-05T03:55:44.040Z,68.35
2019-05-05T03:56:44.266Z,68.16
2019-05-05T03:57:44.487Z,68.16
2019-05-05T03:58:43.772Z,68.26
2019-05-05T03:59:44.284Z,68.35
2019-05-05T04:00:43.679Z,68.07
2019-05-05T04:01:44.038Z,68.10
2019-05-05T04:02:44.518Z,68.58
2019-05-05T04:03:43.723Z,68.39
2019-05-05T04:04:44.287Z,68.29
2019-05-05T04:05:44.452Z,67.91
2019-05-05T04:06:44.593Z,68.01
2019-05-05T04:07:44.122Z,68.39
2019-05-05T04:08:44.436Z,68.01
2019-05-05T04:09:43.874Z,67.82
2019-05-05T04:10:43.997Z,68.19
2019-05-05T04:11:44.392Z,67.72
2019-05-05T04:12:43.722Z,67.63
2019-05-05T04:13:43.827Z,67.72
2019-05-05T04:14:44.095Z,67.34
2019-05-05T04:15:44.203Z,67.25
2019-05-05T04:16:43.748Z,67.15
2019-05-05T04:17:44.401Z,67.34
2019-05-05T04:18:43.752Z,66.58
2019-05-05T04:19:43.764Z,66.96
2019-05-05T04:20:44.214Z,67.09
2019-05-05T04:21:44.896Z,66.42
2019-05-05T04:22:43.752Z,66.71
2019-05-05T04:23:44.271Z,66.24
2019-05-05T04:24:43.816Z,66.05
2019-05-05T04:25:44.033Z,66.05
2019-05-05T04:26:44.149Z,65.76
2019-05-05T04:27:44.491Z,65.28
2019-05-05T04:28:43.811Z,65.19
2019-05-05T04:29:44.094Z,64.62
2019-05-05T04:30:44.458Z,64.46
2019-05-05T04:31:43.794Z,63.89
2019-05-05T04:32:44.055Z,63.79
2019-05-05T04:33:44.476Z,63.35
2019-05-05T04:34:44.165Z,62.12
2019-05-05T04:35:44.468Z,61.35
2019-05-05T04:36:44.371Z,60.44
2019-05-05T04:37:43.903Z,59.58
2019-05-05T04:38:44.077Z,58.65
2019-05-05T04:39:44.473Z,57.26
2019-05-05T04:40:43.863Z,56.33
2019-05-05T04:41:44.110Z,55.57
2019-05-05T04:42:44.175Z,54.55
2019-05-05T04:43:44.299Z,54.19
2019-05-05T04:44:44.855Z,52.48
2019-05-05T04:45:43.860Z,51.43
2019-05-05T04:46:44.343Z,50.98
2019-05-05T04:47:43.859Z,50.40
2019-05-05T04:48:43.977Z,50.14
2019-05-05T04:49:44.517Z,49.85
2019-05-05T04:50:44.172Z,49.66
2019-05-05T04:51:49.424Z,48.73
2019-05-05T04:52:43.891Z,48.54
2019-05-05T04:53:43.908Z,47.30
2019-05-05T04:54:44.006Z,46.94
2019-05-05T04:55:44.313Z,46.17
2019-05-05T04:56:44.785Z,45.91
2019-05-05T04:57:43.911Z,44.86
2019-05-05T04:58:44.080Z,44.95
2019-05-05T04:59:44.445Z,44.02
2019-05-05T05:00:44.230Z,43.35
2019-05-05T05:01:44.066Z,43.08
2019-05-05T05:02:43.954Z,42.80
2019-05-05T05:03:43.974Z,41.96
2019-05-05T05:04:44.132Z,40.92
2019-05-05T05:05:44.265Z,40.54
2019-05-05T05:06:43.994Z,39.79
2019-05-05T05:07:44.029Z,38.74
2019-05-05T05:08:44.399Z,38.64
2019-05-05T05:09:44.012Z,38.05
2019-05-05T05:10:44.071Z,39.12
2019-05-05T05:11:44.377Z,38.83
2019-05-05T05:12:44.050Z,38.07
2019-05-05T05:13:44.169Z,37.97
2019-05-05T05:14:44.192Z,37.99
2019-05-05T05:15:44.625Z,37.99
2019-05-05T05:16:44.055Z,36.66
2019-05-05T05:17:44.381Z,36.68
2019-05-05T05:18:44.634Z,35.74
2019-05-05T05:19:44.098Z,35.26
2019-05-05T05:20:44.416Z,34.59
2019-05-05T05:21:51.966Z,33.64
2019-05-05T05:22:44.148Z,33.15
2019-05-05T05:23:44.547Z,34.12
2019-05-05T05:24:44.675Z,33.74
2019-05-05T05:25:44.131Z,33.47
2019-05-05T05:26:44.321Z,32.51
2019-05-05T05:27:44.435Z,32.70
2019-05-05T05:28:44.755Z,32.79
2019-05-05T05:29:44.153Z,32.23
2019-05-05T05:30:44.203Z,32.23
2019-05-05T05:31:44.346Z,31.95
2019-05-05T05:32:44.680Z,31.77
2019-05-05T05:33:44.226Z,31.00
2019-05-05T05:34:44.334Z,31.00
2019-05-05T05:35:44.270Z,30.80
2019-05-05T05:36:44.370Z,30.53
2019-05-05T05:37:44.886Z,30.24
2019-05-05T05:38:44.323Z,30.43
2019-05-05T05:39:44.254Z,30.35
2019-05-05T05:40:44.488Z,29.95
2019-05-05T05:41:44.291Z,29.86
2019-05-05T05:42:44.294Z,29.95
2019-05-05T05:43:44.289Z,29.68
2019-05-05T05:44:44.555Z,29.28
2019-05-05T05:45:44.322Z,29.74
2019-05-05T05:46:44.336Z,30.24
2019-05-05T05:47:44.399Z,29.76
2019-05-05T05:48:44.374Z,29.66
2019-05-05T05:49:44.405Z,30.13
2019-05-05T05:50:44.438Z,30.11
2019-05-05T05:51:44.781Z,30.79
2019-05-05T05:52:44.392Z,30.61
2019-05-05T05:53:44.415Z,30.52
2019-05-05T05:54:44.442Z,30.32
2019-05-05T05:55:44.877Z,30.43
2019-05-05T05:56:44.752Z,29.55
2019-05-05T05:57:44.488Z,30.34
2019-05-05T05:58:44.450Z,29.66
2019-05-05T05:59:44.565Z,29.17
2019-05-05T06:00:44.513Z,30.13
2019-05-05T06:01:44.511Z,30.02
2019-05-05T06:02:44.613Z,30.32
2019-05-05T06:03:44.545Z,30.15
2019-05-05T06:04:44.737Z,29.47
2019-05-05T06:05:44.554Z,29.49
2019-05-05T06:06:44.603Z,29.68
2019-05-05T06:07:44.542Z,29.10
2019-05-05T06:08:44.583Z,29.39
2019-05-05T06:09:44.931Z,29.10
2019-05-05T06:10:44.594Z,28.92
2019-05-05T06:11:44.627Z,28.33
2019-05-05T06:12:45.068Z,28.72
2019-05-05T06:13:47.467Z,28.53
2019-05-05T06:14:44.840Z,28.45
2019-05-05T06:15:44.678Z,27.97
2019-05-05T06:16:44.887Z,27.68
2019-05-05T06:17:45.039Z,27.87
2019-05-05T06:18:44.746Z,27.60
2019-05-05T06:19:44.758Z,27.31
2019-05-05T06:20:44.747Z,27.02
2019-05-05T06:21:44.760Z,27.60
2019-05-05T06:22:44.801Z,27.22
2019-05-05T06:23:44.756Z,26.73
2019-05-05T06:24:44.737Z,27.02
2019-05-05T06:25:44.969Z,26.82
2019-05-05T06:26:45.763Z,27.11
2019-05-05T06:27:45.990Z,27.67
2019-05-05T06:28:48.223Z,28.16
2019-05-05T06:29:45.547Z,27.80
2019-05-05T06:30:45.305Z,27.60
2019-05-05T06:31:44.919Z,27.80
2019-05-05T06:32:45.800Z,27.68
2019-05-05T06:33:44.851Z,28.07
2019-05-05T06:34:44.894Z,28.73
2019-05-05T06:35:44.873Z,28.53
2019-05-05T06:36:44.885Z,28.91
2019-05-05T06:37:46.685Z,29.00
2019-05-05T06:38:44.943Z,29.08
2019-05-05T06:39:44.963Z,29.28
2019-05-05T06:40:44.948Z,29.46
2019-05-05T06:41:44.953Z,30.10
2019-05-05T06:42:44.962Z,31.45
2019-05-05T06:43:45.015Z,31.74
2019-05-05T06:44:45.020Z,32.03
2019-05-05T06:45:44.995Z,31.83
2019-05-05T06:46:45.021Z,31.92
2019-05-05T06:47:45.168Z,32.55
2019-05-05T06:48:45.036Z,33.90
2019-05-05T06:49:45.064Z,33.80
2019-05-05T06:50:45.062Z,34.07
2019-05-05T06:51:45.063Z,34.36
2019-05-05T06:52:47.116Z,34.94
2019-05-05T06:53:45.076Z,34.75
2019-05-05T06:54:45.124Z,35.21
2019-05-05T06:55:45.101Z,35.77
2019-05-05T06:56:45.114Z,37.01
2019-05-05T06:57:45.120Z,36.63
2019-05-05T06:58:45.128Z,37.57
2019-05-05T06:59:45.175Z,38.53
2019-05-05T07:00:45.272Z,38.70
2019-05-05T07:01:45.158Z,38.98
2019-05-05T07:02:45.213Z,39.08
2019-05-05T07:03:45.177Z,39.54
2019-05-05T07:04:45.229Z,39.73
2019-05-05T07:05:45.227Z,39.83
2019-05-05T07:06:53.536Z,40.41
2019-05-05T07:07:45.278Z,40.48
2019-05-05T07:08:45.547Z,40.67
2019-05-05T07:09:45.293Z,40.55
2019-05-05T07:10:45.294Z,41.80
2019-05-05T07:11:45.292Z,42.08
2019-05-05T07:12:45.267Z,42.25
2019-05-05T07:13:45.308Z,42.16
2019-05-05T07:14:45.278Z,42.83
2019-05-05T07:15:45.283Z,43.21
2019-05-05T07:16:45.331Z,42.73
2019-05-05T07:17:45.332Z,43.30
2019-05-05T07:18:45.306Z,43.57
2019-05-05T07:19:45.321Z,43.48
2019-05-05T07:20:45.367Z,43.66
2019-05-05T07:21:45.330Z,44.72
2019-05-05T07:22:58.474Z,44.98
2019-05-05T07:23:45.365Z,44.89
2019-05-05T07:24:45.339Z,44.41
2019-05-05T07:25:46.117Z,44.51
2019-05-05T07:26:45.626Z,44.31
2019-05-05T07:27:45.373Z,44.89
2019-05-05T07:28:45.383Z,44.96
2019-05-05T07:29:45.382Z,45.15
2019-05-05T07:30:45.391Z,45.72
2019-05-05T07:31:45.451Z,46.01
2019-05-05T07:32:45.434Z,45.92
2019-05-05T07:33:45.417Z,46.27
2019-05-05T07:34:45.424Z,46.27
2019-05-05T07:35:55.381Z,45.79
2019-05-05T07:36:45.484Z,46.08
2019-05-05T07:37:46.362Z,46.27
2019-05-05T07:38:45.447Z,46.27
2019-05-05T07:39:45.459Z,46.27
2019-05-05T07:40:45.497Z,45.61
2019-05-05T07:41:45.460Z,45.61
2019-05-05T07:42:45.497Z,45.61
2019-05-05T07:43:45.583Z,45.89
2019-05-05T07:44:45.619Z,44.84
2019-05-05T07:45:45.489Z,44.56
2019-05-05T07:46:45.502Z,45.03
2019-05-05T07:47:47.380Z,45.22
2019-05-05T07:48:45.699Z,45.32
2019-05-05T07:49:45.510Z,45.22
2019-05-05T07:50:58.677Z,45.89
2019-05-05T07:51:45.572Z,45.51
2019-05-05T07:52:45.541Z,45.70
2019-05-05T07:53:45.583Z,43.77
2019-05-05T07:54:45.702Z,42.91
2019-05-05T07:55:45.544Z,43.29
2019-05-05T07:56:45.843Z,43.46
2019-05-05T07:57:45.578Z,42.99
2019-05-05T07:58:45.568Z,43.37
2019-05-05T07:59:45.595Z,44.70
2019-05-05T08:00:45.622Z,44.60
2019-05-05T08:01:46.721Z,44.89
2019-05-05T08:02:45.601Z,43.65
2019-05-05T08:03:45.616Z,43.84
2019-05-05T08:04:45.630Z,44.60
2019-05-05T08:05:45.666Z,44.99
2019-05-05T08:06:45.845Z,45.37
2019-05-05T08:07:45.838Z,45.37
2019-05-05T08:08:45.688Z,45.08
2019-05-05T08:09:45.717Z,45.56
2019-05-05T08:10:45.674Z,45.56
2019-05-05T08:11:45.722Z,46.13
2019-05-05T08:12:45.774Z,45.37
2019-05-05T08:13:45.759Z,44.70
2019-05-05T08:14:45.758Z,43.56
2019-05-05T08:15:56.267Z,43.84
2019-05-05T08:16:45.887Z,44.60
2019-05-05T08:17:45.715Z,44.51
2019-05-05T08:18:45.685Z,45.08
2019-05-05T08:19:45.751Z,45.18
2019-05-05T08:20:45.744Z,44.99
2019-05-05T08:21:45.854Z,45.08
2019-05-05T08:22:45.812Z,44.80
2019-05-05T08:23:45.812Z,44.70
2019-05-05T08:24:45.737Z,44.80
2019-05-05T08:25:45.744Z,44.70
2019-05-05T08:26:45.838Z,44.60
2019-05-05T08:27:45.728Z,43.84
2019-05-05T08:28:45.786Z,43.37
2019-05-05T08:29:45.761Z,42.82
2019-05-05T08:30:45.787Z,41.96
2019-05-05T08:31:45.752Z,41.77
2019-05-05T08:32:45.790Z,41.48
2019-05-05T08:33:45.806Z,41.96
2019-05-05T08:34:56.891Z,42.15
2019-05-05T08:35:45.890Z,43.10
2019-05-05T08:36:45.875Z,42.15
2019-05-05T08:37:45.802Z,41.98
2019-05-05T08:38:45.810Z,42.08
2019-05-05T08:39:45.812Z,42.17
2019-05-05T08:40:45.839Z,41.88
2019-05-05T08:41:47.440Z,41.41
2019-05-05T08:42:45.877Z,40.74
2019-05-05T08:43:46.887Z,40.74
2019-05-05T08:44:45.846Z,40.26
2019-05-05T08:45:45.847Z,41.03
2019-05-05T08:46:46.008Z,40.57
2019-05-05T08:47:45.971Z,41.05
2019-05-05T08:48:45.872Z,40.57
2019-05-05T08:49:45.919Z,40.95
2019-05-05T08:50:45.988Z,40.95
2019-05-05T08:51:45.894Z,40.97
2019-05-05T08:52:45.978Z,40.78
2019-05-05T08:53:48.393Z,40.49
2019-05-05T08:54:46.212Z,40.47
2019-05-05T08:55:46.155Z,40.19
2019-05-05T08:56:45.936Z,40.00
2019-05-05T08:57:45.940Z,39.35
2019-05-05T08:58:46.000Z,39.06
2019-05-05T08:59:45.972Z,38.20
2019-05-05T09:00:46.105Z,37.92
2019-05-05T09:01:45.970Z,38.01
2019-05-05T09:02:45.963Z,37.73
2019-05-05T09:03:45.988Z,37.73
2019-05-05T09:04:46.043Z,38.20
2019-05-05T09:05:46.031Z,38.01
2019-05-05T09:06:46.028Z,38.39
2019-05-05T09:07:46.039Z,38.20
2019-05-05T09:08:46.068Z,38.68
2019-05-05T09:09:46.061Z,38.87
2019-05-05T09:10:46.070Z,38.68
2019-05-05T09:11:46.032Z,38.68
2019-05-05T09:12:46.061Z,38.20
2019-05-05T09:13:46.076Z,38.01
2019-05-05T09:14:46.128Z,37.73
2019-05-05T09:15:46.126Z,37.15
2019-05-05T09:16:46.277Z,36.58
2019-05-05T09:17:46.380Z,36.48
2019-05-05T09:18:46.109Z,37.92
2019-05-05T09:19:46.115Z,37.44
2019-05-05T09:20:46.157Z,37.63
2019-05-05T09:21:46.114Z,38.10
2019-05-05T09:22:46.120Z,37.53
2019-05-05T09:23:59.118Z,36.48
2019-05-05T09:24:46.195Z,37.24
2019-05-05T09:25:46.180Z,37.15
2019-05-05T09:26:46.206Z,36.87
2019-05-05T09:27:46.279Z,37.53
2019-05-05T09:28:46.184Z,37.82
2019-05-05T09:29:46.211Z,37.34
2019-05-05T09:30:46.270Z,36.87
2019-05-05T09:31:46.189Z,37.05
2019-05-05T09:32:46.322Z,37.24
2019-05-05T09:33:46.364Z,37.44
2019-05-05T09:34:46.213Z,36.94
2019-05-05T09:35:46.261Z,36.85
2019-05-05T09:36:46.212Z,38.28
2019-05-05T09:37:46.243Z,37.32
2019-05-05T09:38:46.229Z,36.39
2019-05-05T09:39:46.352Z,36.68
2019-05-05T09:40:46.307Z,37.15
2019-05-05T09:41:46.325Z,36.68
2019-05-05T09:42:46.297Z,35.53
2019-05-05T09:43:46.417Z,35.43
2019-05-05T09:44:46.371Z,35.13
2019-05-05T09:45:46.326Z,34.65
2019-05-05T09:46:46.281Z,34.55
2019-05-05T09:47:46.297Z,34.55
2019-05-05T09:48:46.357Z,34.75
2019-05-05T09:49:46.271Z,35.05
2019-05-05T09:50:46.673Z,35.33
2019-05-05T09:51:46.544Z,36.00
2019-05-05T09:52:46.614Z,36.10
2019-05-05T09:53:46.609Z,36.39
2019-05-05T09:54:46.570Z,36.77
2019-05-05T09:55:46.529Z,36.48
2019-05-05T09:56:46.399Z,36.39
2019-05-05T09:57:46.588Z,36.58
2019-05-05T09:58:46.426Z,37.53
2019-05-05T09:59:46.398Z,37.53
2019-05-05T10:00:46.652Z,37.84
2019-05-05T10:01:46.568Z,36.69
2019-05-05T10:02:46.445Z,36.41
2019-05-05T10:03:46.592Z,34.88
2019-05-05T10:04:46.995Z,33.35
2019-05-05T10:05:46.643Z,32.29
2019-05-05T10:06:47.938Z,32.29
2019-05-05T10:07:46.603Z,32.20
2019-05-05T10:08:46.842Z,33.35
2019-05-05T10:09:46.887Z,33.06
2019-05-05T10:10:46.470Z,32.01
2019-05-05T10:11:46.727Z,31.43
2019-05-05T10:12:46.981Z,30.21
2019-05-05T10:13:46.732Z,29.72
2019-05-05T10:14:46.512Z,30.19
2019-05-05T10:15:46.709Z,30.48
2019-05-05T10:16:46.519Z,30.40
2019-05-05T10:17:46.511Z,30.86
2019-05-05T10:18:46.476Z,30.59
2019-05-05T10:19:46.489Z,30.59
2019-05-05T10:20:46.504Z,30.48
2019-05-05T10:21:46.507Z,31.24
2019-05-05T10:22:46.531Z,31.55
2019-05-05T10:23:46.525Z,31.72
2019-05-05T10:24:46.542Z,31.92
2019-05-05T10:25:46.551Z,31.93
2019-05-05T10:26:46.527Z,32.12
2019-05-05T10:27:47.780Z,32.21
2019-05-05T10:28:46.544Z,32.70
2019-05-05T10:29:46.564Z,32.79
2019-05-05T10:30:46.578Z,33.17
2019-05-05T10:31:46.580Z,32.81
2019-05-05T10:32:46.625Z,32.12
2019-05-05T10:33:46.587Z,31.74
2019-05-05T10:34:46.596Z,31.66
2019-05-05T10:35:46.597Z,31.66
2019-05-05T10:36:46.611Z,31.66
2019-05-05T10:37:46.653Z,31.56
2019-05-05T10:38:46.755Z,31.76
2019-05-05T10:39:46.629Z,32.04
2019-05-05T10:40:48.334Z,32.14
2019-05-05T10:41:46.904Z,30.99
2019-05-05T10:42:46.649Z,29.65
2019-05-05T10:43:46.694Z,29.27
2019-05-05T10:44:46.678Z,29.63
2019-05-05T10:45:46.703Z,29.74
2019-05-05T10:46:46.689Z,30.11
2019-05-05T10:47:46.717Z,30.02
2019-05-05T10:48:46.736Z,29.73
2019-05-05T10:49:46.736Z,29.35
2019-05-05T10:50:46.712Z,29.27
2019-05-05T10:51:46.746Z,29.55
2019-05-05T10:52:46.735Z,29.27
2019-05-05T10:53:46.794Z,28.87
2019-05-05T10:54:46.751Z,29.25
2019-05-05T10:55:46.764Z,28.97
2019-05-05T10:56:46.803Z,28.87
2019-05-05T10:57:46.777Z,28.68
2019-05-05T10:58:46.805Z,28.87
2019-05-05T10:59:46.780Z,28.49
2019-05-05T11:00:46.790Z,28.49
2019-05-05T11:01:46.792Z,28.77
2019-05-05T11:02:46.867Z,28.28
2019-05-05T11:03:46.831Z,28.28
2019-05-05T11:04:48.620Z,27.80
2019-05-05T11:05:46.941Z,28.47
2019-05-05T11:06:46.897Z,28.76
2019-05-05T11:07:46.869Z,28.87
2019-05-05T11:08:46.893Z,29.16
2019-05-05T11:09:46.866Z,28.76
2019-05-05T11:10:46.869Z,29.06
2019-05-05T11:11:46.937Z,29.16
2019-05-05T11:12:46.873Z,29.44
2019-05-05T11:13:47.013Z,29.25
2019-05-05T11:14:46.893Z,30.11
2019-05-05T11:15:46.922Z,30.30
2019-05-05T11:16:46.958Z,30.30
2019-05-05T11:17:46.923Z,30.30
2019-05-05T11:18:46.920Z,29.63
2019-05-05T11:19:47.222Z,29.16
2019-05-05T11:20:46.939Z,29.06
2019-05-05T11:21:46.960Z,28.77
2019-05-05T11:22:46.944Z,28.30
2019-05-05T11:23:46.989Z,27.91
2019-05-05T11:24:57.401Z,27.80
2019-05-05T11:25:46.963Z,28.39
2019-05-05T11:26:46.994Z,28.11
2019-05-05T11:27:46.991Z,28.30
2019-05-05T11:28:47.015Z,27.53
2019-05-05T11:29:47.043Z,27.62
2019-05-05T11:30:47.016Z,27.16
2019-05-05T11:31:47.032Z,26.57
2019-05-05T11:32:47.069Z,26.39
2019-05-05T11:33:47.039Z,26.10
2019-05-05T11:34:47.072Z,26.39
2019-05-05T11:35:47.739Z,26.48
2019-05-05T11:36:47.344Z,26.30
2019-05-05T11:37:47.096Z,25.90
2019-05-05T11:38:47.064Z,25.52
2019-05-05T11:39:47.077Z,25.71
2019-05-05T11:40:47.138Z,25.62
2019-05-05T11:41:47.458Z,25.35
2019-05-05T11:42:47.403Z,24.76
2019-05-05T11:43:47.150Z,24.66
2019-05-05T11:44:47.593Z,24.85
2019-05-05T11:45:47.162Z,25.71
2019-05-05T11:46:47.147Z,26.19
2019-05-05T11:47:47.144Z,26.68
2019-05-05T11:48:47.180Z,26.68
2019-05-05T11:49:47.188Z,27.15
2019-05-05T11:50:47.177Z,27.72
2019-05-05T11:51:47.175Z,27.72
2019-05-05T11:52:47.177Z,27.62
2019-05-05T11:53:47.276Z,28.30
2019-05-05T11:54:47.187Z,28.88
2019-05-05T11:55:47.219Z,28.31
2019-05-05T11:56:47.203Z,28.87
2019-05-05T11:57:47.218Z,28.69
2019-05-05T11:58:47.288Z,28.22
2019-05-05T11:59:47.257Z,28.58
2019-05-05T12:00:47.279Z,28.49
2019-05-05T12:01:47.252Z,27.72
2019-05-05T12:02:47.277Z,27.82
2019-05-05T12:03:47.297Z,27.72
2019-05-05T12:04:47.289Z,27.72
2019-05-05T12:05:47.306Z,28.39
2019-05-05T12:06:47.289Z,28.68
2019-05-05T12:07:47.284Z,29.16
2019-05-05T12:08:47.340Z,29.44
2019-05-05T12:09:47.311Z,29.92
2019-05-05T12:10:47.387Z,30.48
2019-05-05T12:11:47.329Z,30.49
2019-05-05T12:12:47.367Z,30.67
2019-05-05T12:13:47.339Z,31.15
2019-05-05T12:14:47.342Z,30.86
2019-05-05T12:15:47.400Z,31.26
2019-05-05T12:16:47.594Z,31.35
2019-05-05T12:17:47.373Z,30.69
2019-05-05T12:18:47.394Z,31.07
2019-05-05T12:19:48.617Z,30.98
2019-05-05T12:20:47.432Z,30.98
2019-05-05T12:21:47.410Z,30.78
2019-05-05T12:22:47.428Z,30.59
2019-05-05T12:23:47.420Z,30.59
2019-05-05T12:24:47.440Z,30.40
2019-05-05T12:25:47.434Z,29.35
2019-05-05T12:26:47.470Z,29.16
2019-05-05T12:27:47.534Z,29.06
2019-05-05T12:28:47.440Z,29.16
2019-05-05T12:29:47.481Z,28.79
2019-05-05T12:30:47.449Z,28.59
2019-05-05T12:31:47.498Z,28.69
2019-05-05T12:32:47.463Z,28.31
2019-05-05T12:33:47.582Z,27.73
2019-05-05T12:34:47.507Z,27.73
2019-05-05T12:35:47.489Z,27.26
2019-05-05T12:36:47.628Z,27.73
2019-05-05T12:37:47.555Z,27.83
2019-05-05T12:38:47.569Z,27.73
2019-05-05T12:39:47.625Z,27.66
2019-05-05T12:40:47.565Z,27.75
2019-05-05T12:41:47.573Z,27.66
2019-05-05T12:42:47.557Z,27.56
2019-05-05T12:43:47.600Z,26.98
2019-05-05T12:44:47.603Z,26.41
2019-05-05T12:45:47.674Z,25.74
2019-05-05T12:46:47.595Z,25.84
2019-05-05T12:47:47.618Z,25.15
2019-05-05T12:48:47.617Z,24.87
2019-05-05T12:49:47.640Z,24.96
2019-05-05T12:50:47.626Z,25.15
2019-05-05T12:51:47.640Z,25.44
2019-05-05T12:52:47.723Z,25.73